createdAt,value
2018-10-02T00:02:21.931Z,6.17
2018-10-02T00:04:50.823Z,9.63
2018-10-02T00:07:19.610Z,7.87
2018-10-02T00:09:48.796Z,9.30
2018-10-02T00:12:23.093Z,8.43
2018-10-02T00:14:52.273Z,10.47
2018-10-02T00:17:21.068Z,13.27
2018-10-02T00:19:49.839Z,9.93
2018-10-02T00:22:18.738Z,8.37
2018-10-02T00:24:47.843Z,6.13
2018-10-02T00:27:16.794Z,7.03
2018-10-02T00:29:45.605Z,6.10
2018-10-02T00:32:14.611Z,5.77
2018-10-02T00:34:43.471Z,7.23
2018-10-02T00:37:12.394Z,7.53
2018-10-02T00:39:41.306Z,7.50
2018-10-02T00:42:10.241Z,7.37
2018-10-02T00:44:39.138Z,6.57
2018-10-02T00:47:08.264Z,8.07
2018-10-02T00:49:37.136Z,11.30
2018-10-02T00:52:06.808Z,9.53
2018-10-02T00:54:35.624Z,11.13
2018-10-02T00:57:04.680Z,8.43
2018-10-02T00:59:33.597Z,9.30
2018-10-02T01:02:02.501Z,11.83
2018-10-02T01:04:31.358Z,6.40
2018-10-02T01:07:00.260Z,10.77
2018-10-02T01:09:29.084Z,14.00
2018-10-02T01:11:58.037Z,7.70
2018-10-02T01:14:26.908Z,9.40
2018-10-02T01:16:55.842Z,13.10
2018-10-02T01:19:24.652Z,7.47
2018-10-02T01:21:53.548Z,11.23
2018-10-02T01:24:22.423Z,8.93
2018-10-02T01:26:51.315Z,12.37
2018-10-02T01:29:20.250Z,14.83
2018-10-02T01:31:49.129Z,12.07
2018-10-02T01:34:18.002Z,9.50
2018-10-02T01:36:46.835Z,13.70
2018-10-02T01:39:15.764Z,12.37
2018-10-02T01:41:45.129Z,17.17
2018-10-02T01:44:13.957Z,9.80
2018-10-02T01:46:42.850Z,13.67
2018-10-02T01:49:11.696Z,11.17
2018-10-02T01:51:40.570Z,7.90
2018-10-02T01:54:09.533Z,9.93
2018-10-02T01:56:38.353Z,13.27
2018-10-02T01:59:07.227Z,14.80
2018-10-02T02:01:36.078Z,7.60
2018-10-02T02:04:04.964Z,8.97
2018-10-02T02:06:33.819Z,8.60
2018-10-02T02:09:03.188Z,11.63
2018-10-02T02:11:32.025Z,7.53
2018-10-02T02:14:00.935Z,10.93
2018-10-02T02:16:29.778Z,6.17
2018-10-02T02:18:58.822Z,9.10
2018-10-02T02:21:27.716Z,11.90
2018-10-02T02:23:56.589Z,5.07
2018-10-02T02:26:25.466Z,11.47
2018-10-02T02:28:54.279Z,9.90
2018-10-02T02:31:23.226Z,8.73
2018-10-02T02:33:52.022Z,7.80
2018-10-02T02:36:20.868Z,5.43
2018-10-02T02:38:49.810Z,8.97
2018-10-02T02:41:18.662Z,7.67
2018-10-02T02:43:47.529Z,7.43
2018-10-02T02:46:16.350Z,10.03
2018-10-02T02:48:50.753Z,4.53
2018-10-02T02:51:23.958Z,5.53
2018-10-02T02:53:52.856Z,7.67
2018-10-02T02:56:21.736Z,7.60
2018-10-02T02:58:50.507Z,4.13
2018-10-02T03:01:19.504Z,6.03
2018-10-02T03:03:48.336Z,11.17
2018-10-02T03:06:17.277Z,7.53
2018-10-02T03:08:46.085Z,5.53
2018-10-02T03:11:15.041Z,9.20
2018-10-02T03:13:43.823Z,9.70
2018-10-02T03:16:12.648Z,8.20
2018-10-02T03:18:41.672Z,9.10
2018-10-02T03:21:10.470Z,7.07
2018-10-02T03:23:39.571Z,6.53
2018-10-02T03:26:08.631Z,6.60
2018-10-02T03:28:37.861Z,7.30
2018-10-02T03:31:06.953Z,6.07
2018-10-02T03:33:35.857Z,8.60
2018-10-02T03:36:04.687Z,1.83
2018-10-02T03:38:33.523Z,5.67
2018-10-02T03:41:02.387Z,3.80
2018-10-02T03:43:31.601Z,7.50
2018-10-02T03:46:00.408Z,5.73
2018-10-02T03:48:29.300Z,3.90
2018-10-02T03:50:58.185Z,5.40
2018-10-02T03:53:27.009Z,5.33
2018-10-02T03:55:55.927Z,5.97
2018-10-02T03:58:24.765Z,7.70
2018-10-02T04:00:53.837Z,4.87
2018-10-02T04:03:23.134Z,11.40
2018-10-02T04:05:51.991Z,8.03
2018-10-02T04:08:21.134Z,5.40
2018-10-02T04:10:49.956Z,8.37
2018-10-02T04:13:18.861Z,8.97
2018-10-02T04:15:47.723Z,5.77
2018-10-02T04:18:16.584Z,7.83
2018-10-02T04:20:45.673Z,6.47
2018-10-02T04:23:14.343Z,6.97
2018-10-02T04:25:43.178Z,10.67
2018-10-02T04:28:12.041Z,7.47
2018-10-02T04:30:40.905Z,8.93
2018-10-02T04:33:09.903Z,7.60
2018-10-02T04:35:38.754Z,8.50
2018-10-02T04:38:07.572Z,5.90
2018-10-02T04:40:36.509Z,3.90
2018-10-02T04:43:05.306Z,7.97
2018-10-02T04:45:34.235Z,7.57
2018-10-02T04:48:03.074Z,6.43
2018-10-02T04:50:31.920Z,7.00
2018-10-02T04:53:00.727Z,6.93
2018-10-02T04:55:29.789Z,6.57
2018-10-02T04:57:58.736Z,7.30
2018-10-02T05:00:27.672Z,7.43
2018-10-02T05:02:56.525Z,4.73
2018-10-02T05:05:25.403Z,5.83
2018-10-02T05:07:54.307Z,7.57
2018-10-02T05:10:23.193Z,6.40
2018-10-02T05:12:52.027Z,6.60
2018-10-02T05:15:20.849Z,7.40
2018-10-02T05:17:49.719Z,6.40
2018-10-02T05:20:18.515Z,7.33
2018-10-02T05:22:47.389Z,4.63
2018-10-02T05:25:16.255Z,7.13
2018-10-02T05:27:45.121Z,7.20
2018-10-02T05:30:13.966Z,8.83
2018-10-02T05:32:42.833Z,6.37
2018-10-02T05:35:11.784Z,6.53
2018-10-02T05:37:40.602Z,6.57
2018-10-02T05:40:09.425Z,6.77
2018-10-02T05:42:38.329Z,5.50
2018-10-02T05:45:08.229Z,11.27
2018-10-02T05:47:37.190Z,6.77
2018-10-02T05:50:06.188Z,9.83
2018-10-02T05:52:35.421Z,9.83
2018-10-02T05:55:04.719Z,6.80
2018-10-02T05:57:34.724Z,7.47
2018-10-02T06:00:03.767Z,9.60
2018-10-02T06:02:32.822Z,5.63
2018-10-02T06:05:01.697Z,5.93
2018-10-02T06:07:30.591Z,8.87
2018-10-02T06:09:59.497Z,7.20
2018-10-02T06:12:28.348Z,5.47
2018-10-02T06:14:57.217Z,6.07
2018-10-02T06:17:26.046Z,6.83
2018-10-02T06:19:54.960Z,5.47
2018-10-02T06:22:23.730Z,11.43
2018-10-02T06:24:52.987Z,9.07
2018-10-02T06:27:21.773Z,5.63
2018-10-02T06:29:50.665Z,10.63
2018-10-02T06:32:19.501Z,4.43
2018-10-02T06:34:48.358Z,4.53
2018-10-02T06:37:17.349Z,7.80
2018-10-02T06:39:46.255Z,9.90
2018-10-02T06:42:15.127Z,8.97
2018-10-02T06:44:44.127Z,7.03
2018-10-02T06:47:12.897Z,11.60
2018-10-02T06:49:42.393Z,7.43
2018-10-02T06:52:11.993Z,5.50
2018-10-02T06:54:41.032Z,9.33
2018-10-02T06:57:09.940Z,11.47
2018-10-02T06:59:39.003Z,6.43
2018-10-02T07:02:08.620Z,6.63
2018-10-02T07:04:39.104Z,9.77
2018-10-02T07:07:07.984Z,7.50
2018-10-02T07:09:37.182Z,7.13
2018-10-02T07:12:06.133Z,11.13
2018-10-02T07:14:35.431Z,9.70
2018-10-02T07:17:04.255Z,8.00
2018-10-02T07:19:33.369Z,8.97
2018-10-02T07:22:02.157Z,6.80
2018-10-02T07:24:30.975Z,7.03
2018-10-02T07:27:00.072Z,9.77
2018-10-02T07:29:28.863Z,7.30
2018-10-02T07:31:57.731Z,5.37
2018-10-02T07:34:26.531Z,6.37
2018-10-02T07:36:55.529Z,10.13
2018-10-02T07:39:25.224Z,8.13
2018-10-02T07:41:54.731Z,9.87
2018-10-02T07:44:23.734Z,9.47
2018-10-02T07:46:52.615Z,9.93
2018-10-02T07:49:21.709Z,10.63
2018-10-02T07:51:50.973Z,9.00
2018-10-02T07:54:20.231Z,12.27
2018-10-02T07:56:49.140Z,13.60
2018-10-02T07:59:18.859Z,8.70
2018-10-02T08:01:47.988Z,11.13
2018-10-02T08:04:17.725Z,12.93
2018-10-02T08:06:46.575Z,12.90
2018-10-02T08:09:16.199Z,12.83
2018-10-02T08:11:45.062Z,12.37
2018-10-02T08:14:14.185Z,10.07
2018-10-02T08:16:43.071Z,12.23
2018-10-02T08:19:11.920Z,11.63
2018-10-02T08:21:40.946Z,10.97
2018-10-02T08:24:10.346Z,11.90
2018-10-02T08:26:40.403Z,11.87
2018-10-02T08:29:09.944Z,11.87
2018-10-02T08:31:38.862Z,13.17
2018-10-02T08:34:07.808Z,10.07
2018-10-02T08:36:36.988Z,13.37
2018-10-02T08:39:08.805Z,12.27
2018-10-02T08:41:41.106Z,12.17
2018-10-02T08:44:11.633Z,10.73
2018-10-02T08:46:43.593Z,12.80
2018-10-02T08:49:15.348Z,14.53
2018-10-02T08:51:46.520Z,12.97
2018-10-02T08:54:17.100Z,13.47
2018-10-02T08:56:48.034Z,13.03
2018-10-02T08:59:19.325Z,10.27
2018-10-02T09:01:48.986Z,9.87
2018-10-02T09:04:18.143Z,11.23
2018-10-02T09:06:47.035Z,12.10
2018-10-02T09:09:15.954Z,10.40
2018-10-02T09:11:44.825Z,12.13
2018-10-02T09:14:13.760Z,13.30
2018-10-02T09:16:42.784Z,11.63
2018-10-02T09:19:11.840Z,12.97
2018-10-02T09:21:40.859Z,12.97
2018-10-02T09:24:09.657Z,12.00
2018-10-02T09:26:38.717Z,13.07
2018-10-02T09:29:07.834Z,11.30
2018-10-02T09:31:42.248Z,11.93
2018-10-02T09:34:16.891Z,11.53
2018-10-02T09:36:51.542Z,12.43
2018-10-02T09:39:26.310Z,12.23
2018-10-02T09:42:00.570Z,12.07
2018-10-02T09:44:29.474Z,13.73
2018-10-02T09:46:58.666Z,12.30
2018-10-02T09:49:27.637Z,10.10
2018-10-02T09:51:56.507Z,9.93
2018-10-02T09:54:25.438Z,11.57
2018-10-02T09:56:54.583Z,12.33
2018-10-02T09:59:23.845Z,17.93
2018-10-02T10:01:58.364Z,12.60
2018-10-02T10:04:27.303Z,13.13
2018-10-02T10:06:56.484Z,12.83
2018-10-02T10:09:25.348Z,15.33
2018-10-02T10:11:54.175Z,12.87
2018-10-02T10:14:22.975Z,10.40
2018-10-02T10:16:52.024Z,10.97
2018-10-02T10:19:20.773Z,11.60
2018-10-02T10:21:49.965Z,11.97
2018-10-02T10:24:18.815Z,11.57
2018-10-02T10:26:47.641Z,11.23
2018-10-02T10:29:16.533Z,10.70
2018-10-02T10:31:45.362Z,10.47
2018-10-02T10:34:14.701Z,11.57
2018-10-02T10:36:43.529Z,10.03
2018-10-02T10:39:12.442Z,12.07
2018-10-02T10:41:41.312Z,9.87
2018-10-02T10:44:10.190Z,9.73
2018-10-02T10:46:39.167Z,9.10
2018-10-02T10:49:07.991Z,7.30
2018-10-02T10:51:36.825Z,8.63
2018-10-02T10:54:05.716Z,10.40
2018-10-02T10:56:34.576Z,8.90
2018-10-02T10:59:03.646Z,12.07
2018-10-02T11:01:32.755Z,7.67
2018-10-02T11:04:01.722Z,8.30
2018-10-02T11:06:30.566Z,8.20
2018-10-02T11:08:59.358Z,8.40
2018-10-02T11:11:28.480Z,10.93
2018-10-02T11:13:57.377Z,8.53
2018-10-02T11:16:26.206Z,7.63
2018-10-02T11:18:55.034Z,7.40
2018-10-02T11:21:23.907Z,8.93
2018-10-02T11:23:52.827Z,7.80
2018-10-02T11:26:21.698Z,8.90
2018-10-02T11:28:50.523Z,8.80
2018-10-02T11:31:19.703Z,8.03
2018-10-02T11:33:48.580Z,11.43
2018-10-02T11:36:17.505Z,9.43
2018-10-02T11:38:46.328Z,8.63
2018-10-02T11:41:15.252Z,9.40
2018-10-02T11:43:44.181Z,9.00
2018-10-02T11:46:13.035Z,9.03
2018-10-02T11:48:41.928Z,9.30
2018-10-02T11:51:10.805Z,10.63
2018-10-02T11:53:39.662Z,10.33
2018-10-02T11:56:08.545Z,10.47
2018-10-02T11:58:37.380Z,9.70
2018-10-02T12:01:06.772Z,12.07
2018-10-02T12:03:35.655Z,12.77
2018-10-02T12:06:04.507Z,10.53
2018-10-02T12:08:33.411Z,11.10
2018-10-02T12:11:02.252Z,11.00
2018-10-02T12:13:31.726Z,12.27
2018-10-02T12:16:00.418Z,11.77
2018-10-02T12:18:29.318Z,14.00
2018-10-02T12:20:58.137Z,12.80
2018-10-02T12:23:26.995Z,13.27
2018-10-02T12:25:55.849Z,14.90
2018-10-02T12:28:24.704Z,14.43
2018-10-02T12:30:53.575Z,15.13
2018-10-02T12:33:22.475Z,13.60
2018-10-02T12:35:51.283Z,15.87
2018-10-02T12:38:20.230Z,14.60
2018-10-02T12:40:49.056Z,12.43
2018-10-02T12:43:18.211Z,13.33
2018-10-02T12:45:47.000Z,13.43
2018-10-02T12:48:15.875Z,12.57
2018-10-02T12:50:44.881Z,12.37
2018-10-02T12:53:13.889Z,13.17
2018-10-02T12:55:42.708Z,12.73
2018-10-02T12:58:11.592Z,12.87
2018-10-02T13:00:40.421Z,11.47
2018-10-02T13:03:09.357Z,13.20
2018-10-02T13:05:38.260Z,14.13
2018-10-02T13:08:07.107Z,13.93
2018-10-02T13:10:36.027Z,14.37
2018-10-02T13:13:04.922Z,14.97
2018-10-02T13:15:33.868Z,13.93
2018-10-02T13:18:02.813Z,14.80
2018-10-02T13:20:31.707Z,15.40
2018-10-02T13:23:00.597Z,15.43
2018-10-02T13:25:29.518Z,16.87
2018-10-02T13:27:58.480Z,13.30
2018-10-02T13:30:27.368Z,14.37
2018-10-02T13:32:56.184Z,14.93
2018-10-02T13:35:25.151Z,14.17
2018-10-02T13:37:54.043Z,12.77
2018-10-02T13:40:22.970Z,14.53
2018-10-02T13:42:52.158Z,13.37
2018-10-02T13:45:21.036Z,12.27
2018-10-02T13:47:49.811Z,11.00
2018-10-02T13:50:18.733Z,11.33
2018-10-02T13:52:47.661Z,9.53
2018-10-02T13:55:16.562Z,10.90
2018-10-02T13:57:45.395Z,10.53
2018-10-02T14:00:14.272Z,10.27
2018-10-02T14:02:43.441Z,9.47
2018-10-02T14:05:12.312Z,10.83
2018-10-02T14:07:41.260Z,10.57
2018-10-02T14:10:09.775Z,11.17
2018-10-02T14:12:38.646Z,11.00
2018-10-02T14:15:07.641Z,10.50
2018-10-02T14:17:36.674Z,12.33
2018-10-02T14:20:05.934Z,13.17
2018-10-02T14:22:34.835Z,12.43
2018-10-02T14:25:03.757Z,15.80
2018-10-02T14:27:32.598Z,14.63
2018-10-02T14:30:01.481Z,13.17
2018-10-02T14:32:30.413Z,14.20
2018-10-02T14:34:59.560Z,15.03
2018-10-02T14:37:28.479Z,13.37
2018-10-02T14:39:57.422Z,14.73
2018-10-02T14:42:26.326Z,11.20
2018-10-02T14:44:55.174Z,11.70
2018-10-02T14:47:24.154Z,13.50
2018-10-02T14:49:52.975Z,13.53
2018-10-02T14:52:21.919Z,9.17
2018-10-02T14:54:51.123Z,13.80
2018-10-02T14:57:19.971Z,9.77
2018-10-02T14:59:48.904Z,10.50
2018-10-02T15:02:17.780Z,12.77
2018-10-02T15:04:46.704Z,7.53
2018-10-02T15:07:15.531Z,9.70
2018-10-02T15:09:44.353Z,9.47
2018-10-02T15:12:13.215Z,10.13
2018-10-02T15:14:42.028Z,9.80
2018-10-02T15:17:10.832Z,9.63
2018-10-02T15:19:39.731Z,10.47
2018-10-02T15:22:08.529Z,8.40
2018-10-02T15:24:37.392Z,14.77
2018-10-02T15:27:06.287Z,13.33
2018-10-02T15:29:35.164Z,11.47
2018-10-02T15:32:04.090Z,12.10
2018-10-02T15:34:32.931Z,10.73
2018-10-02T15:37:01.726Z,13.80
2018-10-02T15:39:30.624Z,13.80
2018-10-02T15:41:59.442Z,8.97
2018-10-02T15:44:28.691Z,14.57
2018-10-02T15:46:57.787Z,14.63
2018-10-02T15:49:26.668Z,13.17
2018-10-02T15:51:55.580Z,12.97
2018-10-02T15:54:24.397Z,17.67
2018-10-02T15:56:53.351Z,20.00
2018-10-02T15:59:22.579Z,13.43
2018-10-02T16:01:51.472Z,19.20
2018-10-02T16:04:20.309Z,23.63
2018-10-02T16:06:49.200Z,18.53
2018-10-02T16:09:18.390Z,15.97
2018-10-02T16:11:47.419Z,15.43
2018-10-02T16:14:16.367Z,17.00
2018-10-02T16:16:45.249Z,13.57
2018-10-02T16:19:14.078Z,13.00
2018-10-02T16:21:43.322Z,20.27
2018-10-02T16:24:12.188Z,18.07
2018-10-02T16:26:41.024Z,19.70
2018-10-02T16:29:09.874Z,18.07
2018-10-02T16:31:38.728Z,12.57
2018-10-02T16:34:07.951Z,16.80
2018-10-02T16:36:36.803Z,14.10
2018-10-02T16:39:08.569Z,18.27
2018-10-02T16:41:37.704Z,12.57
2018-10-02T16:44:06.843Z,16.30
2018-10-02T16:46:35.784Z,12.10
2018-10-02T16:49:04.648Z,19.47
2018-10-02T16:51:33.567Z,16.60
2018-10-02T16:54:02.391Z,12.97
2018-10-02T16:56:31.597Z,18.70
2018-10-02T16:59:00.775Z,26.33
2018-10-02T17:01:30.398Z,15.87
2018-10-02T17:03:59.728Z,17.30
2018-10-02T17:06:28.736Z,15.43
2018-10-02T17:08:57.569Z,18.37
2018-10-02T17:11:26.484Z,17.07
2018-10-02T17:13:57.120Z,17.03
2018-10-02T17:16:28.212Z,15.37
2018-10-02T17:18:58.887Z,18.00
2018-10-02T17:21:29.744Z,20.17
2018-10-02T17:24:01.156Z,20.53
2018-10-02T17:26:32.275Z,11.57
2018-10-02T17:29:04.263Z,19.83
2018-10-02T17:31:33.517Z,17.60
2018-10-02T17:34:02.514Z,19.20
2018-10-02T17:36:31.336Z,16.57
2018-10-02T17:39:00.164Z,13.63
2018-10-02T17:41:29.009Z,12.87
2018-10-02T17:43:58.037Z,15.80
2018-10-02T17:46:27.061Z,16.27
2018-10-02T17:48:55.944Z,24.00
2018-10-02T17:51:24.920Z,14.70
2018-10-02T17:53:54.089Z,11.27
2018-10-02T17:56:23.027Z,20.33
2018-10-02T17:58:51.912Z,15.13
2018-10-02T18:01:20.995Z,9.93
2018-10-02T18:03:49.938Z,18.10
2018-10-02T18:06:18.743Z,14.60
2018-10-02T18:08:47.706Z,16.27
2018-10-02T18:11:16.546Z,17.73
2018-10-02T18:13:45.425Z,18.33
2018-10-02T18:16:14.252Z,15.17
2018-10-02T18:18:43.713Z,17.43
2018-10-02T18:21:12.684Z,17.97
2018-10-02T18:23:42.570Z,14.67
2018-10-02T18:26:11.540Z,15.47
2018-10-02T18:28:40.311Z,20.60
2018-10-02T18:31:09.380Z,15.93
2018-10-02T18:33:38.299Z,20.97
2018-10-02T18:36:07.123Z,18.40
2018-10-02T18:38:36.270Z,23.10
2018-10-02T18:41:05.274Z,16.37
2018-10-02T18:43:34.057Z,24.27
2018-10-02T18:46:03.425Z,12.37
2018-10-02T18:48:32.280Z,16.13
2018-10-02T18:51:01.186Z,12.80
2018-10-02T18:53:30.269Z,16.83
2018-10-02T18:55:59.371Z,24.27
2018-10-02T18:58:28.467Z,21.10
2018-10-02T19:00:57.837Z,16.00
2018-10-02T19:03:26.742Z,18.30
2018-10-02T19:05:55.751Z,19.13
2018-10-02T19:08:30.618Z,17.57
2018-10-02T19:11:04.112Z,14.60
2018-10-02T19:13:33.669Z,22.23
2018-10-02T19:16:08.406Z,18.73
2018-10-02T19:18:37.628Z,18.43
2018-10-02T19:21:06.736Z,12.97
2018-10-02T19:23:35.874Z,19.60
2018-10-02T19:26:13.413Z,19.30
2018-10-02T19:28:42.525Z,21.73
2018-10-02T19:31:17.469Z,19.40
2018-10-02T19:33:46.833Z,19.57
2018-10-02T19:36:15.927Z,24.67
2018-10-02T19:38:58.577Z,20.23
2018-10-02T19:41:28.475Z,16.97
2018-10-02T19:43:57.329Z,13.77
2018-10-02T19:46:33.110Z,19.37
2018-10-02T19:49:02.065Z,14.67
2018-10-02T19:51:36.796Z,19.00
2018-10-02T19:54:05.990Z,16.90
2018-10-02T19:56:35.105Z,27.77
2018-10-02T19:59:04.311Z,17.00
2018-10-02T20:01:33.178Z,16.27
2018-10-02T20:04:02.610Z,16.40
2018-10-02T20:06:31.967Z,18.53
2018-10-02T20:09:00.998Z,19.80
2018-10-02T20:11:30.072Z,19.87
2018-10-02T20:13:59.367Z,15.20
2018-10-02T20:16:28.360Z,15.17
2018-10-02T20:18:57.349Z,17.60
2018-10-02T20:21:26.659Z,14.07
2018-10-02T20:23:55.559Z,14.43
2018-10-02T20:26:24.658Z,14.57
2018-10-02T20:28:53.992Z,15.70
2018-10-02T20:31:23.484Z,18.30
2018-10-02T20:33:52.474Z,15.23
2018-10-02T20:36:21.728Z,17.00
2018-10-02T20:38:50.605Z,16.73
2018-10-02T20:41:19.402Z,15.73
2018-10-02T20:43:48.462Z,12.27
2018-10-02T20:46:17.289Z,20.80
2018-10-02T20:48:46.171Z,14.83
2018-10-02T20:51:15.346Z,17.97
2018-10-02T20:53:44.221Z,18.53
2018-10-02T20:56:13.065Z,12.70
2018-10-02T20:58:42.243Z,18.97
2018-10-02T21:01:11.120Z,11.13
2018-10-02T21:03:40.273Z,21.60
2018-10-02T21:06:09.321Z,15.60
2018-10-02T21:08:38.148Z,19.57
2018-10-02T21:11:07.045Z,13.17
2018-10-02T21:13:36.326Z,19.90
2018-10-02T21:16:05.311Z,11.73
2018-10-02T21:18:34.231Z,20.87
2018-10-02T21:21:03.652Z,12.67
2018-10-02T21:23:32.505Z,15.80
2018-10-02T21:26:01.328Z,14.73
2018-10-02T21:28:31.695Z,18.23
2018-10-02T21:31:00.548Z,19.90
2018-10-02T21:33:29.348Z,16.97
2018-10-02T21:35:58.581Z,21.73
2018-10-02T21:38:27.391Z,14.70
2018-10-02T21:40:56.319Z,17.67
2018-10-02T21:43:25.489Z,18.40
2018-10-02T21:45:54.292Z,17.60
2018-10-02T21:48:23.262Z,17.40
2018-10-02T21:50:52.344Z,15.03
2018-10-02T21:53:21.224Z,16.20
2018-10-02T21:55:50.147Z,18.37
2018-10-02T21:58:19.366Z,19.60
2018-10-02T22:00:48.370Z,19.57
2018-10-02T22:03:17.172Z,18.70
2018-10-02T22:05:46.441Z,16.50
2018-10-02T22:08:15.260Z,19.03
2018-10-02T22:10:44.103Z,15.17
2018-10-02T22:13:13.529Z,12.77
2018-10-02T22:15:42.321Z,13.43
2018-10-02T22:18:11.179Z,18.20
2018-10-02T22:20:40.431Z,11.77
2018-10-02T22:23:09.245Z,10.17
2018-10-02T22:25:38.088Z,23.87
2018-10-02T22:28:07.315Z,16.10
2018-10-02T22:30:36.192Z,16.90
2018-10-02T22:33:05.066Z,17.77
2018-10-02T22:35:34.451Z,17.80
2018-10-02T22:38:03.283Z,17.33
2018-10-02T22:40:32.095Z,18.30
2018-10-02T22:43:02.316Z,12.83
2018-10-02T22:45:31.093Z,19.70
2018-10-02T22:47:59.896Z,17.97
2018-10-02T22:50:29.633Z,14.20
2018-10-02T22:52:58.737Z,16.97
2018-10-02T22:55:27.608Z,16.93
2018-10-02T22:57:56.835Z,12.40
2018-10-02T23:00:25.662Z,20.27
2018-10-02T23:02:54.472Z,16.07
2018-10-02T23:05:23.650Z,11.03
2018-10-02T23:07:52.514Z,20.10
2018-10-02T23:10:21.354Z,14.00
2018-10-02T23:12:50.828Z,17.57
2018-10-02T23:15:19.635Z,12.53
2018-10-02T23:17:48.512Z,20.20
2018-10-02T23:20:17.808Z,22.03
2018-10-02T23:22:46.903Z,11.13
2018-10-02T23:25:15.736Z,16.63
2018-10-02T23:27:44.655Z,14.53
2018-10-02T23:30:13.603Z,16.90
2018-10-02T23:32:42.856Z,8.63
2018-10-02T23:35:11.692Z,12.23
2018-10-02T23:37:40.584Z,16.80
2018-10-02T23:40:09.744Z,14.83
2018-10-02T23:42:38.532Z,14.83
2018-10-02T23:45:07.543Z,15.63
2018-10-02T23:47:36.727Z,17.43
2018-10-02T23:50:05.604Z,13.17
2018-10-02T23:52:34.623Z,15.73
2018-10-02T23:55:03.830Z,14.30
2018-10-02T23:57:32.676Z,11.90
